sensor_id;sensor_type;location;lat;lon;timestamp;P1;durP1;ratioP1;P2;durP2;ratioP2
37201;SDS011;37799;52.390;6.136;2022-09-24T00:00:15;14.00;;;6.55;;
37201;SDS011;37799;52.390;6.136;2022-09-24T00:02:41;13.57;;;5.45;;
37201;SDS011;37799;52.390;6.136;2022-09-24T00:05:06;12.95;;;5.70;;
37201;SDS011;37799;52.390;6.136;2022-09-24T00:07:32;14.10;;;5.82;;
37201;SDS011;37799;52.390;6.136;2022-09-24T00:09:57;13.70;;;5.82;;
37201;SDS011;37799;52.390;6.136;2022-09-24T00:12:22;16.17;;;5.80;;
37201;SDS011;37799;52.390;6.136;2022-09-24T00:14:48;14.00;;;5.43;;
37201;SDS011;37799;52.390;6.136;2022-09-24T00:17:13;13.85;;;5.75;;
37201;SDS011;37799;52.390;6.136;2022-09-24T00:19:38;15.68;;;6.07;;
37201;SDS011;37799;52.390;6.136;2022-09-24T00:22:04;14.38;;;6.07;;
37201;SDS011;37799;52.390;6.136;2022-09-24T00:24:29;15.60;;;6.30;;
37201;SDS011;37799;52.390;6.136;2022-09-24T00:27:13;13.05;;;5.30;;
37201;SDS011;37799;52.390;6.136;2022-09-24T00:29:38;15.93;;;6.65;;
37201;SDS011;37799;52.390;6.136;2022-09-24T00:32:04;14.48;;;6.00;;
37201;SDS011;37799;52.390;6.136;2022-09-24T00:34:30;15.68;;;6.55;;
37201;SDS011;37799;52.390;6.136;2022-09-24T00:36:55;14.48;;;5.70;;
37201;SDS011;37799;52.390;6.136;2022-09-24T00:39:21;15.27;;;6.65;;
37201;SDS011;37799;52.390;6.136;2022-09-24T00:41:46;14.95;;;6.78;;
37201;SDS011;37799;52.390;6.136;2022-09-24T00:47:22;14.90;;;5.32;;
37201;SDS011;37799;52.390;6.136;2022-09-24T00:50:07;15.18;;;5.88;;
37201;SDS011;37799;52.390;6.136;2022-09-24T00:52:42;12.88;;;5.72;;
37201;SDS011;37799;52.390;6.136;2022-09-24T00:55:12;15.20;;;5.97;;
37201;SDS011;37799;52.390;6.136;2022-09-24T00:57:39;15.02;;;6.55;;
37201;SDS011;37799;52.390;6.136;2022-09-24T01:00:06;15.10;;;6.53;;
37201;SDS011;37799;52.390;6.136;2022-09-24T01:02:33;14.55;;;6.47;;
37201;SDS011;37799;52.390;6.136;2022-09-24T01:05:01;14.32;;;5.75;;
37201;SDS011;37799;52.390;6.136;2022-09-24T01:07:28;15.10;;;5.90;;
37201;SDS011;37799;52.390;6.136;2022-09-24T01:09:53;18.00;;;7.40;;
37201;SDS011;37799;52.390;6.136;2022-09-24T01:12:38;14.10;;;6.47;;
37201;SDS011;37799;52.390;6.136;2022-09-24T01:23:14;17.13;;;7.20;;
37201;SDS011;37799;52.390;6.136;2022-09-24T01:32:09;17.83;;;7.30;;
37201;SDS011;37799;52.390;6.136;2022-09-24T01:34:53;17.25;;;6.97;;
37201;SDS011;37799;52.390;6.136;2022-09-24T01:37:23;20.23;;;8.63;;
37201;SDS011;37799;52.390;6.136;2022-09-24T01:39:53;17.00;;;7.68;;
37201;SDS011;37799;52.390;6.136;2022-09-24T01:42:21;16.58;;;7.47;;
37201;SDS011;37799;52.390;6.136;2022-09-24T01:44:48;15.25;;;7.07;;
37201;SDS011;37799;52.390;6.136;2022-09-24T01:47:17;16.83;;;7.40;;
37201;SDS011;37799;52.390;6.136;2022-09-24T01:49:47;17.00;;;7.15;;
37201;SDS011;37799;52.390;6.136;2022-09-24T01:52:15;18.08;;;7.10;;
37201;SDS011;37799;52.390;6.136;2022-09-24T01:54:45;18.45;;;7.93;;
37201;SDS011;37799;52.390;6.136;2022-09-24T01:59:58;16.23;;;6.65;;
37201;SDS011;37799;52.390;6.136;2022-09-24T02:04:58;18.02;;;7.22;;
37201;SDS011;37799;52.390;6.136;2022-09-24T02:09:59;15.47;;;6.10;;
37201;SDS011;37799;52.390;6.136;2022-09-24T02:12:30;16.65;;;7.05;;
37201;SDS011;37799;52.390;6.136;2022-09-24T02:15:01;17.55;;;7.00;;
37201;SDS011;37799;52.390;6.136;2022-09-24T02:17:33;18.45;;;6.57;;
37201;SDS011;37799;52.390;6.136;2022-09-24T02:20:02;15.82;;;6.45;;
37201;SDS011;37799;52.390;6.136;2022-09-24T02:22:32;17.00;;;7.57;;
37201;SDS011;37799;52.390;6.136;2022-09-24T02:24:59;17.20;;;6.90;;
37201;SDS011;37799;52.390;6.136;2022-09-24T02:27:27;15.40;;;6.30;;
37201;SDS011;37799;52.390;6.136;2022-09-24T02:29:56;16.58;;;6.97;;
37201;SDS011;37799;52.390;6.136;2022-09-24T02:32:24;16.63;;;7.38;;
37201;SDS011;37799;52.390;6.136;2022-09-24T02:34:54;15.02;;;6.68;;
37201;SDS011;37799;52.390;6.136;2022-09-24T02:37:26;16.15;;;6.70;;
37201;SDS011;37799;52.390;6.136;2022-09-24T02:39:52;15.85;;;6.50;;
37201;SDS011;37799;52.390;6.136;2022-09-24T02:42:18;17.85;;;8.18;;
37201;SDS011;37799;52.390;6.136;2022-09-24T02:44:44;16.65;;;7.15;;
37201;SDS011;37799;52.390;6.136;2022-09-24T02:47:11;16.50;;;7.43;;
37201;SDS011;37799;52.390;6.136;2022-09-24T02:49:36;16.15;;;7.20;;
37201;SDS011;37799;52.390;6.136;2022-09-24T02:52:02;12.73;;;5.63;;
37201;SDS011;37799;52.390;6.136;2022-09-24T02:54:28;15.48;;;6.40;;
37201;SDS011;37799;52.390;6.136;2022-09-24T02:56:54;17.83;;;6.57;;
37201;SDS011;37799;52.390;6.136;2022-09-24T02:59:19;15.88;;;6.70;;
37201;SDS011;37799;52.390;6.136;2022-09-24T03:01:45;15.02;;;6.55;;
37201;SDS011;37799;52.390;6.136;2022-09-24T03:04:10;15.02;;;6.15;;
37201;SDS011;37799;52.390;6.136;2022-09-24T03:06:36;15.45;;;6.28;;
37201;SDS011;37799;52.390;6.136;2022-09-24T03:09:02;14.18;;;5.53;;
37201;SDS011;37799;52.390;6.136;2022-09-24T03:11:28;15.32;;;6.85;;
37201;SDS011;37799;52.390;6.136;2022-09-24T03:13:55;16.55;;;7.03;;
37201;SDS011;37799;52.390;6.136;2022-09-24T03:16:20;14.82;;;6.28;;
37201;SDS011;37799;52.390;6.136;2022-09-24T03:18:46;14.15;;;5.95;;
37201;SDS011;37799;52.390;6.136;2022-09-24T03:21:12;16.35;;;7.20;;
37201;SDS011;37799;52.390;6.136;2022-09-24T03:23:40;16.00;;;5.97;;
37201;SDS011;37799;52.390;6.136;2022-09-24T03:26:05;14.43;;;5.75;;
37201;SDS011;37799;52.390;6.136;2022-09-24T03:28:31;15.68;;;6.40;;
37201;SDS011;37799;52.390;6.136;2022-09-24T03:30:56;14.95;;;5.65;;
37201;SDS011;37799;52.390;6.136;2022-09-24T03:35:55;14.65;;;6.10;;
37201;SDS011;37799;52.390;6.136;2022-09-24T03:38:21;15.82;;;6.70;;
37201;SDS011;37799;52.390;6.136;2022-09-24T03:40:46;16.98;;;5.65;;
37201;SDS011;37799;52.390;6.136;2022-09-24T03:43:11;15.27;;;6.90;;
37201;SDS011;37799;52.390;6.136;2022-09-24T03:45:37;12.75;;;5.15;;
37201;SDS011;37799;52.390;6.136;2022-09-24T03:48:02;15.07;;;6.07;;
37201;SDS011;37799;52.390;6.136;2022-09-24T03:50:30;15.57;;;5.20;;
37201;SDS011;37799;52.390;6.136;2022-09-24T03:52:56;14.20;;;4.97;;
37201;SDS011;37799;52.390;6.136;2022-09-24T03:55:21;13.82;;;5.22;;
37201;SDS011;37799;52.390;6.136;2022-09-24T03:57:46;13.45;;;5.50;;
37201;SDS011;37799;52.390;6.136;2022-09-24T04:00:12;14.68;;;6.05;;
37201;SDS011;37799;52.390;6.136;2022-09-24T04:02:37;13.45;;;5.50;;
37201;SDS011;37799;52.390;6.136;2022-09-24T04:05:04;14.40;;;5.63;;
37201;SDS011;37799;52.390;6.136;2022-09-24T04:07:30;15.50;;;6.35;;
37201;SDS011;37799;52.390;6.136;2022-09-24T04:09:56;16.35;;;6.32;;
37201;SDS011;37799;52.390;6.136;2022-09-24T04:12:21;15.75;;;6.65;;
37201;SDS011;37799;52.390;6.136;2022-09-24T04:14:47;14.60;;;5.78;;
37201;SDS011;37799;52.390;6.136;2022-09-24T04:17:13;14.32;;;5.60;;
37201;SDS011;37799;52.390;6.136;2022-09-24T04:19:38;14.68;;;5.20;;
37201;SDS011;37799;52.390;6.136;2022-09-24T04:22:04;14.13;;;6.15;;
37201;SDS011;37799;52.390;6.136;2022-09-24T04:24:29;14.55;;;6.38;;
37201;SDS011;37799;52.390;6.136;2022-09-24T04:26:55;16.40;;;6.65;;
37201;SDS011;37799;52.390;6.136;2022-09-24T04:29:20;15.20;;;5.93;;
37201;SDS011;37799;52.390;6.136;2022-09-24T04:31:45;14.38;;;5.40;;
37201;SDS011;37799;52.390;6.136;2022-09-24T04:34:11;17.42;;;6.93;;
37201;SDS011;37799;52.390;6.136;2022-09-24T04:36:36;15.73;;;5.35;;
37201;SDS011;37799;52.390;6.136;2022-09-24T04:39:01;14.95;;;5.90;;
37201;SDS011;37799;52.390;6.136;2022-09-24T04:41:27;14.80;;;5.95;;
37201;SDS011;37799;52.390;6.136;2022-09-24T04:43:53;14.75;;;5.85;;
37201;SDS011;37799;52.390;6.136;2022-09-24T04:46:18;14.38;;;5.95;;
37201;SDS011;37799;52.390;6.136;2022-09-24T04:48:43;18.23;;;7.45;;
37201;SDS011;37799;52.390;6.136;2022-09-24T04:51:09;19.00;;;6.53;;
37201;SDS011;37799;52.390;6.136;2022-09-24T04:53:34;15.77;;;5.80;;
37201;SDS011;37799;52.390;6.136;2022-09-24T04:56:01;17.77;;;6.15;;
37201;SDS011;37799;52.390;6.136;2022-09-24T04:58:28;19.45;;;7.05;;
37201;SDS011;37799;52.390;6.136;2022-09-24T05:00:53;18.80;;;7.15;;
37201;SDS011;37799;52.390;6.136;2022-09-24T05:03:18;19.42;;;6.63;;
37201;SDS011;37799;52.390;6.136;2022-09-24T05:05:47;18.55;;;6.95;;
37201;SDS011;37799;52.390;6.136;2022-09-24T05:08:14;18.08;;;6.95;;
37201;SDS011;37799;52.390;6.136;2022-09-24T05:10:39;18.77;;;6.20;;
37201;SDS011;37799;52.390;6.136;2022-09-24T05:13:05;17.10;;;6.93;;
37201;SDS011;37799;52.390;6.136;2022-09-24T05:15:30;18.50;;;6.78;;
37201;SDS011;37799;52.390;6.136;2022-09-24T05:17:56;17.35;;;6.25;;
37201;SDS011;37799;52.390;6.136;2022-09-24T05:20:22;17.05;;;6.22;;
37201;SDS011;37799;52.390;6.136;2022-09-24T05:22:48;18.58;;;6.95;;
37201;SDS011;37799;52.390;6.136;2022-09-24T05:25:14;13.65;;;5.93;;
37201;SDS011;37799;52.390;6.136;2022-09-24T05:27:51;16.63;;;6.38;;
37201;SDS011;37799;52.390;6.136;2022-09-24T05:30:19;15.02;;;6.40;;
37201;SDS011;37799;52.390;6.136;2022-09-24T05:32:46;17.58;;;6.65;;
37201;SDS011;37799;52.390;6.136;2022-09-24T05:35:16;18.05;;;7.43;;
37201;SDS011;37799;52.390;6.136;2022-09-24T05:37:42;16.23;;;5.95;;
37201;SDS011;37799;52.390;6.136;2022-09-24T05:40:08;17.48;;;6.88;;
37201;SDS011;37799;52.390;6.136;2022-09-24T05:42:57;15.70;;;6.00;;
37201;SDS011;37799;52.390;6.136;2022-09-24T05:45:24;17.23;;;6.35;;
37201;SDS011;37799;52.390;6.136;2022-09-24T05:47:50;15.95;;;6.18;;
37201;SDS011;37799;52.390;6.136;2022-09-24T05:50:15;16.70;;;6.22;;
37201;SDS011;37799;52.390;6.136;2022-09-24T05:52:40;15.35;;;6.65;;
37201;SDS011;37799;52.390;6.136;2022-09-24T05:55:06;16.85;;;6.47;;
37201;SDS011;37799;52.390;6.136;2022-09-24T05:57:33;15.85;;;5.78;;
37201;SDS011;37799;52.390;6.136;2022-09-24T05:59:58;16.52;;;7.05;;
37201;SDS011;37799;52.390;6.136;2022-09-24T06:02:24;19.27;;;6.95;;
37201;SDS011;37799;52.390;6.136;2022-09-24T06:04:49;15.55;;;6.30;;
37201;SDS011;37799;52.390;6.136;2022-09-24T06:07:14;20.08;;;6.10;;
37201;SDS011;37799;52.390;6.136;2022-09-24T06:09:40;14.88;;;6.07;;
37201;SDS011;37799;52.390;6.136;2022-09-24T06:12:08;15.00;;;5.93;;
37201;SDS011;37799;52.390;6.136;2022-09-24T06:14:34;18.05;;;6.40;;
37201;SDS011;37799;52.390;6.136;2022-09-24T06:17:00;14.68;;;5.43;;
37201;SDS011;37799;52.390;6.136;2022-09-24T06:19:25;14.80;;;5.60;;
37201;SDS011;37799;52.390;6.136;2022-09-24T06:21:50;14.10;;;5.90;;
37201;SDS011;37799;52.390;6.136;2022-09-24T06:24:16;13.52;;;5.30;;
37201;SDS011;37799;52.390;6.136;2022-09-24T06:26:41;15.25;;;5.65;;
37201;SDS011;37799;52.390;6.136;2022-09-24T06:29:06;14.20;;;5.13;;
37201;SDS011;37799;52.390;6.136;2022-09-24T06:31:32;16.08;;;5.68;;
37201;SDS011;37799;52.390;6.136;2022-09-24T06:33:58;14.55;;;5.50;;
37201;SDS011;37799;52.390;6.136;2022-09-24T06:36:24;15.80;;;5.88;;
37201;SDS011;37799;52.390;6.136;2022-09-24T06:38:50;15.68;;;6.07;;
37201;SDS011;37799;52.390;6.136;2022-09-24T06:41:16;14.82;;;5.10;;
37201;SDS011;37799;52.390;6.136;2022-09-24T06:43:42;16.02;;;6.47;;
37201;SDS011;37799;52.390;6.136;2022-09-24T06:46:07;14.07;;;6.30;;
37201;SDS011;37799;52.390;6.136;2022-09-24T06:48:33;15.05;;;5.28;;
37201;SDS011;37799;52.390;6.136;2022-09-24T06:50:58;15.32;;;5.60;;
37201;SDS011;37799;52.390;6.136;2022-09-24T06:53:24;14.13;;;5.47;;
37201;SDS011;37799;52.390;6.136;2022-09-24T06:55:50;13.07;;;4.55;;
37201;SDS011;37799;52.390;6.136;2022-09-24T06:58:17;13.57;;;5.20;;
37201;SDS011;37799;52.390;6.136;2022-09-24T07:00:51;12.77;;;4.80;;
37201;SDS011;37799;52.390;6.136;2022-09-24T07:03:18;12.95;;;4.97;;
37201;SDS011;37799;52.390;6.136;2022-09-24T07:05:44;15.77;;;5.90;;
37201;SDS011;37799;52.390;6.136;2022-09-24T07:08:10;14.65;;;5.57;;
37201;SDS011;37799;52.390;6.136;2022-09-24T07:10:35;13.48;;;5.20;;
37201;SDS011;37799;52.390;6.136;2022-09-24T07:13:02;13.93;;;5.05;;
37201;SDS011;37799;52.390;6.136;2022-09-24T07:15:27;15.18;;;5.68;;
37201;SDS011;37799;52.390;6.136;2022-09-24T07:17:56;14.55;;;5.25;;
37201;SDS011;37799;52.390;6.136;2022-09-24T07:20:21;12.90;;;5.25;;
37201;SDS011;37799;52.390;6.136;2022-09-24T07:22:47;15.15;;;5.63;;
37201;SDS011;37799;52.390;6.136;2022-09-24T07:25:13;15.82;;;5.90;;
37201;SDS011;37799;52.390;6.136;2022-09-24T07:27:38;13.75;;;5.53;;
37201;SDS011;37799;52.390;6.136;2022-09-24T07:30:04;15.30;;;5.40;;
37201;SDS011;37799;52.390;6.136;2022-09-24T07:32:31;13.10;;;5.10;;
37201;SDS011;37799;52.390;6.136;2022-09-24T07:34:56;14.93;;;5.18;;
37201;SDS011;37799;52.390;6.136;2022-09-24T07:37:21;14.25;;;5.00;;
37201;SDS011;37799;52.390;6.136;2022-09-24T07:39:47;13.05;;;4.60;;
37201;SDS011;37799;52.390;6.136;2022-09-24T07:42:12;17.05;;;5.53;;
37201;SDS011;37799;52.390;6.136;2022-09-24T07:44:37;13.10;;;4.80;;
37201;SDS011;37799;52.390;6.136;2022-09-24T07:47:03;12.05;;;4.80;;
37201;SDS011;37799;52.390;6.136;2022-09-24T07:49:28;14.77;;;5.13;;
37201;SDS011;37799;52.390;6.136;2022-09-24T07:51:56;14.02;;;5.50;;
37201;SDS011;37799;52.390;6.136;2022-09-24T07:54:21;13.57;;;4.68;;
37201;SDS011;37799;52.390;6.136;2022-09-24T07:56:47;14.15;;;5.25;;
37201;SDS011;37799;52.390;6.136;2022-09-24T07:59:12;12.73;;;5.15;;
37201;SDS011;37799;52.390;6.136;2022-09-24T08:01:38;12.68;;;4.85;;
37201;SDS011;37799;52.390;6.136;2022-09-24T08:04:04;12.30;;;4.63;;
37201;SDS011;37799;52.390;6.136;2022-09-24T08:06:32;13.30;;;4.95;;
37201;SDS011;37799;52.390;6.136;2022-09-24T08:08:59;14.23;;;5.40;;
37201;SDS011;37799;52.390;6.136;2022-09-24T08:11:26;13.27;;;5.53;;
37201;SDS011;37799;52.390;6.136;2022-09-24T08:13:51;12.48;;;4.57;;
37201;SDS011;37799;52.390;6.136;2022-09-24T08:16:17;12.55;;;4.82;;
37201;SDS011;37799;52.390;6.136;2022-09-24T08:18:45;11.68;;;4.50;;
37201;SDS011;37799;52.390;6.136;2022-09-24T08:21:11;12.13;;;4.55;;
37201;SDS011;37799;52.390;6.136;2022-09-24T08:23:37;10.38;;;3.95;;
37201;SDS011;37799;52.390;6.136;2022-09-24T08:26:04;11.95;;;4.63;;
37201;SDS011;37799;52.390;6.136;2022-09-24T08:28:30;8.13;;;3.40;;
37201;SDS011;37799;52.390;6.136;2022-09-24T08:31:02;12.75;;;4.70;;
37201;SDS011;37799;52.390;6.136;2022-09-24T08:33:31;11.88;;;4.32;;
37201;SDS011;37799;52.390;6.136;2022-09-24T08:35:57;12.63;;;4.82;;
37201;SDS011;37799;52.390;6.136;2022-09-24T08:38:24;11.65;;;5.00;;
37201;SDS011;37799;52.390;6.136;2022-09-24T08:46:47;11.50;;;4.18;;
37201;SDS011;37799;52.390;6.136;2022-09-24T08:49:36;11.88;;;4.35;;
37201;SDS011;37799;52.390;6.136;2022-09-24T08:52:15;11.18;;;4.03;;
37201;SDS011;37799;52.390;6.136;2022-09-24T08:55:03;11.38;;;4.20;;
37201;SDS011;37799;52.390;6.136;2022-09-24T08:57:48;10.30;;;3.67;;
37201;SDS011;37799;52.390;6.136;2022-09-24T09:00:22;12.00;;;3.63;;
37201;SDS011;37799;52.390;6.136;2022-09-24T09:03:08;10.60;;;3.70;;
37201;SDS011;37799;52.390;6.136;2022-09-24T09:05:53;9.85;;;3.35;;
37201;SDS011;37799;52.390;6.136;2022-09-24T09:11:03;10.45;;;3.33;;
37201;SDS011;37799;52.390;6.136;2022-09-24T09:13:43;11.95;;;3.72;;
37201;SDS011;37799;52.390;6.136;2022-09-24T09:18:49;9.48;;;3.97;;
37201;SDS011;37799;52.390;6.136;2022-09-24T09:21:20;11.02;;;4.00;;
37201;SDS011;37799;52.390;6.136;2022-09-24T09:23:49;9.00;;;3.35;;
37201;SDS011;37799;52.390;6.136;2022-09-24T09:26:16;10.45;;;3.72;;
37201;SDS011;37799;52.390;6.136;2022-09-24T09:28:44;11.10;;;4.25;;
37201;SDS011;37799;52.390;6.136;2022-09-24T09:34:08;11.07;;;3.38;;
37201;SDS011;37799;52.390;6.136;2022-09-24T09:42:38;7.47;;;2.67;;
37201;SDS011;37799;52.390;6.136;2022-09-24T09:47:56;7.53;;;2.95;;
37201;SDS011;37799;52.390;6.136;2022-09-24T09:50:33;8.43;;;3.22;;
37201;SDS011;37799;52.390;6.136;2022-09-24T09:55:31;7.25;;;2.30;;
37201;SDS011;37799;52.390;6.136;2022-09-24T10:01:02;7.43;;;2.30;;
37201;SDS011;37799;52.390;6.136;2022-09-24T10:06:08;8.13;;;2.60;;
37201;SDS011;37799;52.390;6.136;2022-09-24T10:08:37;8.45;;;2.95;;
37201;SDS011;37799;52.390;6.136;2022-09-24T10:11:04;9.27;;;2.63;;
37201;SDS011;37799;52.390;6.136;2022-09-24T10:13:31;7.15;;;2.08;;
37201;SDS011;37799;52.390;6.136;2022-09-24T10:15:58;7.63;;;2.17;;
37201;SDS011;37799;52.390;6.136;2022-09-24T10:18:30;5.97;;;2.15;;
37201;SDS011;37799;52.390;6.136;2022-09-24T10:20:59;6.38;;;1.92;;
37201;SDS011;37799;52.390;6.136;2022-09-24T10:23:34;6.90;;;2.17;;
37201;SDS011;37799;52.390;6.136;2022-09-24T10:26:03;6.05;;;1.60;;
37201;SDS011;37799;52.390;6.136;2022-09-24T10:28:30;6.82;;;2.10;;
37201;SDS011;37799;52.390;6.136;2022-09-24T10:31:17;6.75;;;2.13;;
37201;SDS011;37799;52.390;6.136;2022-09-24T10:33:45;6.75;;;2.30;;
37201;SDS011;37799;52.390;6.136;2022-09-24T10:36:14;5.25;;;1.55;;
37201;SDS011;37799;52.390;6.136;2022-09-24T10:38:43;5.55;;;1.60;;
37201;SDS011;37799;52.390;6.136;2022-09-24T10:41:15;6.38;;;1.90;;
37201;SDS011;37799;52.390;6.136;2022-09-24T10:43:51;5.45;;;1.60;;
37201;SDS011;37799;52.390;6.136;2022-09-24T10:57:34;5.95;;;2.05;;
37201;SDS011;37799;52.390;6.136;2022-09-24T11:00:13;6.03;;;1.70;;
37201;SDS011;37799;52.390;6.136;2022-09-24T11:05:23;6.38;;;2.03;;
37201;SDS011;37799;52.390;6.136;2022-09-24T11:15:54;5.22;;;1.58;;
37201;SDS011;37799;52.390;6.136;2022-09-24T11:23:54;6.30;;;1.88;;
37201;SDS011;37799;52.390;6.136;2022-09-24T11:38:15;5.47;;;1.58;;
37201;SDS011;37799;52.390;6.136;2022-09-24T11:46:15;6.32;;;1.38;;
37201;SDS011;37799;52.390;6.136;2022-09-24T11:57:24;10.52;;;1.40;;
37201;SDS011;37799;52.390;6.136;2022-09-24T12:00:00;5.55;;;1.40;;
37201;SDS011;37799;52.390;6.136;2022-09-24T12:02:33;4.43;;;1.30;;
37201;SDS011;37799;52.390;6.136;2022-09-24T12:05:11;5.82;;;1.40;;
37201;SDS011;37799;52.390;6.136;2022-09-24T12:07:59;4.45;;;1.20;;
37201;SDS011;37799;52.390;6.136;2022-09-24T12:10:36;7.55;;;1.15;;
37201;SDS011;37799;52.390;6.136;2022-09-24T12:15:59;5.28;;;1.25;;
37201;SDS011;37799;52.390;6.136;2022-09-24T12:18:37;10.50;;;1.58;;
37201;SDS011;37799;52.390;6.136;2022-09-24T12:21:17;6.80;;;1.30;;
37201;SDS011;37799;52.390;6.136;2022-09-24T12:23:50;6.00;;;1.20;;
37201;SDS011;37799;52.390;6.136;2022-09-24T12:26:19;4.72;;;1.25;;
37201;SDS011;37799;52.390;6.136;2022-09-24T12:32:09;5.32;;;1.40;;
37201;SDS011;37799;52.390;6.136;2022-09-24T12:35:24;7.43;;;1.33;;
37201;SDS011;37799;52.390;6.136;2022-09-24T12:43:46;5.22;;;1.25;;
37201;SDS011;37799;52.390;6.136;2022-09-24T12:46:21;4.28;;;1.05;;
37201;SDS011;37799;52.390;6.136;2022-09-24T12:49:15;4.38;;;1.30;;
37201;SDS011;37799;52.390;6.136;2022-09-24T12:51:48;4.78;;;1.02;;
37201;SDS011;37799;52.390;6.136;2022-09-24T12:56:51;5.55;;;0.98;;
37201;SDS011;37799;52.390;6.136;2022-09-24T12:59:28;4.05;;;0.95;;
37201;SDS011;37799;52.390;6.136;2022-09-24T13:01:54;2.08;;;0.30;;
37201;SDS011;37799;52.390;6.136;2022-09-24T13:04:31;1.35;;;0.30;;
37201;SDS011;37799;52.390;6.136;2022-09-24T13:06:56;1.17;;;0.13;;
37201;SDS011;37799;52.390;6.136;2022-09-24T13:12:31;1.13;;;0.20;;
37201;SDS011;37799;52.390;6.136;2022-09-24T13:14:58;4.85;;;0.25;;
37201;SDS011;37799;52.390;6.136;2022-09-24T13:17:27;1.67;;;0.10;;
37201;SDS011;37799;52.390;6.136;2022-09-24T13:19:58;0.95;;;0.20;;
37201;SDS011;37799;52.390;6.136;2022-09-24T13:25:39;2.38;;;0.20;;
37201;SDS011;37799;52.390;6.136;2022-09-24T13:27:54;0.98;;;0.20;;
37201;SDS011;37799;52.390;6.136;2022-09-24T13:30:25;1.33;;;0.13;;
37201;SDS011;37799;52.390;6.136;2022-09-24T13:41:44;2.17;;;0.15;;
37201;SDS011;37799;52.390;6.136;2022-09-24T13:44:21;1.42;;;0.20;;
37201;SDS011;37799;52.390;6.136;2022-09-24T13:46:57;3.60;;;0.20;;
37201;SDS011;37799;52.390;6.136;2022-09-24T13:49:29;1.85;;;0.20;;
37201;SDS011;37799;52.390;6.136;2022-09-24T13:52:05;3.70;;;0.45;;
37201;SDS011;37799;52.390;6.136;2022-09-24T13:54:37;2.08;;;0.10;;
37201;SDS011;37799;52.390;6.136;2022-09-24T13:57:13;1.95;;;0.20;;
37201;SDS011;37799;52.390;6.136;2022-09-24T13:59:45;5.25;;;1.33;;
37201;SDS011;37799;52.390;6.136;2022-09-24T14:02:21;0.63;;;0.10;;
37201;SDS011;37799;52.390;6.136;2022-09-24T14:04:57;1.92;;;0.10;;
37201;SDS011;37799;52.390;6.136;2022-09-24T14:07:25;2.15;;;0.30;;
37201;SDS011;37799;52.390;6.136;2022-09-24T14:12:37;3.55;;;0.20;;
37201;SDS011;37799;52.390;6.136;2022-09-24T14:15:05;0.68;;;0.10;;
37201;SDS011;37799;52.390;6.136;2022-09-24T14:17:38;4.05;;;0.60;;
37201;SDS011;37799;52.390;6.136;2022-09-24T14:20:03;0.40;;;0.10;;
37201;SDS011;37799;52.390;6.136;2022-09-24T14:22:32;2.25;;;0.13;;
37201;SDS011;37799;52.390;6.136;2022-09-24T14:25:11;1.55;;;0.40;;
37201;SDS011;37799;52.390;6.136;2022-09-24T14:27:45;1.85;;;0.10;;
37201;SDS011;37799;52.390;6.136;2022-09-24T14:30:20;2.15;;;0.22;;
37201;SDS011;37799;52.390;6.136;2022-09-24T14:32:51;3.72;;;0.20;;
37201;SDS011;37799;52.390;6.136;2022-09-24T14:35:24;1.13;;;0.20;;
37201;SDS011;37799;52.390;6.136;2022-09-24T14:37:56;1.35;;;0.20;;
37201;SDS011;37799;52.390;6.136;2022-09-24T14:40:30;1.33;;;0.30;;
37201;SDS011;37799;52.390;6.136;2022-09-24T14:43:09;0.75;;;0.10;;
37201;SDS011;37799;52.390;6.136;2022-09-24T14:45:40;2.13;;;0.57;;
37201;SDS011;37799;52.390;6.136;2022-09-24T14:48:26;2.78;;;0.40;;
37201;SDS011;37799;52.390;6.136;2022-09-24T14:50:54;1.90;;;0.38;;
37201;SDS011;37799;52.390;6.136;2022-09-24T14:55:59;2.38;;;0.30;;
37201;SDS011;37799;52.390;6.136;2022-09-24T15:00:56;2.58;;;0.40;;
37201;SDS011;37799;52.390;6.136;2022-09-24T15:03:31;4.90;;;1.88;;
37201;SDS011;37799;52.390;6.136;2022-09-24T15:06:11;1.70;;;0.20;;
37201;SDS011;37799;52.390;6.136;2022-09-24T15:08:37;8.82;;;3.40;;
37201;SDS011;37799;52.390;6.136;2022-09-24T15:11:03;2.75;;;0.77;;
37201;SDS011;37799;52.390;6.136;2022-09-24T15:13:30;3.17;;;0.60;;
37201;SDS011;37799;52.390;6.136;2022-09-24T15:16:32;1.63;;;0.20;;
37201;SDS011;37799;52.390;6.136;2022-09-24T15:19:08;1.20;;;0.20;;
37201;SDS011;37799;52.390;6.136;2022-09-24T15:21:36;5.85;;;1.50;;
37201;SDS011;37799;52.390;6.136;2022-09-24T15:24:01;4.68;;;1.00;;
37201;SDS011;37799;52.390;6.136;2022-09-24T15:26:27;5.38;;;0.75;;
37201;SDS011;37799;52.390;6.136;2022-09-24T15:28:58;3.90;;;0.20;;
37201;SDS011;37799;52.390;6.136;2022-09-24T15:31:25;2.07;;;0.10;;
37201;SDS011;37799;52.390;6.136;2022-09-24T15:33:51;1.10;;;0.13;;
37201;SDS011;37799;52.390;6.136;2022-09-24T15:36:16;7.35;;;1.50;;
37201;SDS011;37799;52.390;6.136;2022-09-24T15:38:45;3.00;;;0.68;;
37201;SDS011;37799;52.390;6.136;2022-09-24T15:41:22;1.33;;;0.10;;
37201;SDS011;37799;52.390;6.136;2022-09-24T15:43:47;1.48;;;0.20;;
37201;SDS011;37799;52.390;6.136;2022-09-24T15:46:12;0.88;;;0.10;;
37201;SDS011;37799;52.390;6.136;2022-09-24T15:48:38;2.58;;;0.20;;
37201;SDS011;37799;52.390;6.136;2022-09-24T15:51:03;1.30;;;0.13;;
37201;SDS011;37799;52.390;6.136;2022-09-24T15:53:29;1.55;;;0.05;;
37201;SDS011;37799;52.390;6.136;2022-09-24T15:55:59;0.85;;;0.15;;
37201;SDS011;37799;52.390;6.136;2022-09-24T15:58:25;0.77;;;0.00;;
37201;SDS011;37799;52.390;6.136;2022-09-24T16:00:51;1.75;;;0.28;;
37201;SDS011;37799;52.390;6.136;2022-09-24T16:05:44;3.40;;;0.20;;
37201;SDS011;37799;52.390;6.136;2022-09-24T16:08:11;1.42;;;0.10;;
37201;SDS011;37799;52.390;6.136;2022-09-24T16:10:37;1.25;;;0.10;;
37201;SDS011;37799;52.390;6.136;2022-09-24T16:13:03;2.90;;;0.20;;
37201;SDS011;37799;52.390;6.136;2022-09-24T16:15:29;1.77;;;0.20;;
37201;SDS011;37799;52.390;6.136;2022-09-24T16:17:54;6.28;;;0.63;;
37201;SDS011;37799;52.390;6.136;2022-09-24T16:20:20;1.58;;;0.13;;
37201;SDS011;37799;52.390;6.136;2022-09-24T16:22:45;0.15;;;0.00;;
37201;SDS011;37799;52.390;6.136;2022-09-24T16:25:11;2.72;;;1.17;;
37201;SDS011;37799;52.390;6.136;2022-09-24T16:27:36;3.78;;;1.52;;
37201;SDS011;37799;52.390;6.136;2022-09-24T16:30:03;2.85;;;0.45;;
37201;SDS011;37799;52.390;6.136;2022-09-24T16:32:29;2.30;;;0.28;;
37201;SDS011;37799;52.390;6.136;2022-09-24T16:34:54;0.88;;;0.40;;
37201;SDS011;37799;52.390;6.136;2022-09-24T16:37:20;1.75;;;0.10;;
37201;SDS011;37799;52.390;6.136;2022-09-24T16:39:46;1.75;;;0.20;;
37201;SDS011;37799;52.390;6.136;2022-09-24T16:42:12;3.75;;;0.22;;
37201;SDS011;37799;52.390;6.136;2022-09-24T16:44:37;3.13;;;0.82;;
37201;SDS011;37799;52.390;6.136;2022-09-24T16:47:02;3.58;;;1.00;;
37201;SDS011;37799;52.390;6.136;2022-09-24T16:49:28;1.63;;;0.20;;
37201;SDS011;37799;52.390;6.136;2022-09-24T16:51:53;0.98;;;0.20;;
37201;SDS011;37799;52.390;6.136;2022-09-24T16:54:19;2.33;;;0.30;;
37201;SDS011;37799;52.390;6.136;2022-09-24T16:56:47;0.50;;;0.10;;
37201;SDS011;37799;52.390;6.136;2022-09-24T16:59:14;3.00;;;0.10;;
37201;SDS011;37799;52.390;6.136;2022-09-24T17:01:40;1.67;;;0.22;;
37201;SDS011;37799;52.390;6.136;2022-09-24T17:04:06;0.85;;;0.05;;
37201;SDS011;37799;52.390;6.136;2022-09-24T17:06:31;2.55;;;0.50;;
37201;SDS011;37799;52.390;6.136;2022-09-24T17:08:58;3.42;;;0.88;;
37201;SDS011;37799;52.390;6.136;2022-09-24T17:11:43;1.25;;;0.15;;
37201;SDS011;37799;52.390;6.136;2022-09-24T17:14:14;1.08;;;0.20;;
37201;SDS011;37799;52.390;6.136;2022-09-24T17:16:40;2.42;;;0.20;;
37201;SDS011;37799;52.390;6.136;2022-09-24T17:19:07;2.83;;;0.88;;
37201;SDS011;37799;52.390;6.136;2022-09-24T17:21:34;1.70;;;0.20;;